createdAt,value
2018-03-08T00:01:11.675Z,3.75
2018-03-08T00:03:39.192Z,3.52
2018-03-08T00:06:06.705Z,3.61
2018-03-08T00:08:34.222Z,3.72
2018-03-08T00:11:01.750Z,3.88
2018-03-08T00:13:29.275Z,3.88
2018-03-08T00:15:56.800Z,3.88
2018-03-08T00:18:24.359Z,3.84
2018-03-08T00:20:51.875Z,3.82
2018-03-08T00:23:19.398Z,3.69
2018-03-08T00:25:46.910Z,3.78
2018-03-08T00:28:14.424Z,3.74
2018-03-08T00:30:41.955Z,3.74
2018-03-08T00:33:09.483Z,3.68
2018-03-08T00:35:37.031Z,3.77
2018-03-08T00:38:04.539Z,3.73
2018-03-08T00:40:32.059Z,3.57
2018-03-08T00:42:59.578Z,3.70
2018-03-08T00:45:27.098Z,3.62
2018-03-08T00:47:54.634Z,3.59
2018-03-08T00:50:22.158Z,3.51
2018-03-08T00:52:49.680Z,3.57
2018-03-08T00:55:17.197Z,3.66
2018-03-08T00:57:44.718Z,3.69
2018-03-08T01:00:12.257Z,3.62
2018-03-08T01:02:39.775Z,3.50
2018-03-08T01:05:07.314Z,3.46
2018-03-08T01:07:34.843Z,3.69
2018-03-08T01:10:02.373Z,3.56
2018-03-08T01:12:29.894Z,3.43
2018-03-08T01:14:57.421Z,3.66
2018-03-08T01:17:24.936Z,3.73
2018-03-08T01:19:52.488Z,3.72
2018-03-08T01:22:20.004Z,3.73
2018-03-08T01:24:47.528Z,3.71
2018-03-08T01:27:15.075Z,3.69
2018-03-08T01:29:42.602Z,3.57
2018-03-08T01:32:10.121Z,3.74
2018-03-08T01:34:37.637Z,3.63
2018-03-08T01:37:05.154Z,3.75
2018-03-08T01:39:32.671Z,3.71
2018-03-08T01:42:00.193Z,3.59
2018-03-08T01:44:27.718Z,3.64
2018-03-08T01:46:55.238Z,3.65
2018-03-08T01:49:22.750Z,3.75
2018-03-08T01:52:02.318Z,3.25
2018-03-08T01:54:29.838Z,3.48
2018-03-08T01:56:57.378Z,3.19
2018-03-08T01:59:24.910Z,3.47
2018-03-08T02:01:52.430Z,3.60
2018-03-08T02:04:19.952Z,3.68
2018-03-08T02:06:47.474Z,3.72
2018-03-08T02:09:14.993Z,3.65
2018-03-08T02:11:42.504Z,3.65
2018-03-08T02:14:10.029Z,3.68
2018-03-08T02:16:37.541Z,3.70
2018-03-08T02:19:05.049Z,3.67
2018-03-08T02:21:32.566Z,3.71
2018-03-08T02:24:00.086Z,3.69
2018-03-08T02:26:27.621Z,3.76
2018-03-08T02:28:55.137Z,3.69
2018-03-08T02:31:22.655Z,3.72
2018-03-08T02:33:50.175Z,3.77
2018-03-08T02:36:17.689Z,3.73
2018-03-08T02:38:45.211Z,3.68
2018-03-08T02:41:12.729Z,3.67
2018-03-08T02:43:40.245Z,3.77
2018-03-08T02:46:07.759Z,3.70
2018-03-08T02:48:35.276Z,3.74
2018-03-08T02:51:02.787Z,3.60
2018-03-08T02:53:30.330Z,3.66
2018-03-08T02:55:57.854Z,3.58
2018-03-08T02:58:25.405Z,3.76
2018-03-08T03:00:52.922Z,3.61
2018-03-08T03:03:20.446Z,3.51
2018-03-08T03:05:47.970Z,3.67
2018-03-08T03:08:15.508Z,3.52
2018-03-08T03:10:43.027Z,3.72
2018-03-08T03:13:10.542Z,3.86
2018-03-08T03:15:38.064Z,3.76
2018-03-08T03:18:05.593Z,3.70
2018-03-08T03:20:33.115Z,3.83
2018-03-08T03:23:00.639Z,3.83
2018-03-08T03:25:28.161Z,3.88
2018-03-08T03:27:55.682Z,3.56
2018-03-08T03:30:23.199Z,3.76
2018-03-08T03:32:50.724Z,3.86
2018-03-08T03:35:18.242Z,3.87
2018-03-08T03:37:45.789Z,3.82
2018-03-08T03:40:13.309Z,3.83
2018-03-08T03:42:40.820Z,3.84
2018-03-08T03:45:08.339Z,3.78
2018-03-08T03:47:35.868Z,3.83
2018-03-08T03:50:03.404Z,3.78
2018-03-08T03:52:30.925Z,3.85
2018-03-08T03:54:58.437Z,3.64
2018-03-08T03:57:25.963Z,3.81
2018-03-08T03:59:53.500Z,3.93
2018-03-08T04:02:21.027Z,3.88
2018-03-08T04:04:48.555Z,3.83
2018-03-08T04:07:16.079Z,3.88
2018-03-08T04:09:43.602Z,3.97
2018-03-08T04:12:11.163Z,3.76
2018-03-08T04:14:38.684Z,3.91
2018-03-08T04:17:06.239Z,3.75
2018-03-08T04:19:33.775Z,3.69
2018-03-08T04:22:01.298Z,3.88
2018-03-08T04:24:28.830Z,3.89
2018-03-08T04:26:56.351Z,3.82
2018-03-08T04:29:23.881Z,3.99
2018-03-08T04:31:51.402Z,3.95
2018-03-08T04:34:18.930Z,3.94
2018-03-08T04:36:46.453Z,3.99
2018-03-08T04:39:14.005Z,3.93
2018-03-08T04:41:41.540Z,3.95
2018-03-08T04:44:09.065Z,3.91
2018-03-08T04:46:36.592Z,3.82
2018-03-08T04:49:04.112Z,3.98
2018-03-08T04:51:31.628Z,3.97
2018-03-08T04:53:59.140Z,3.81
2018-03-08T04:56:26.657Z,3.94
2018-03-08T04:58:54.177Z,3.86
2018-03-08T05:01:21.689Z,3.86
2018-03-08T05:03:49.210Z,3.83
2018-03-08T05:06:16.789Z,3.88
2018-03-08T05:08:44.312Z,3.87
2018-03-08T05:11:11.863Z,3.90
2018-03-08T05:13:39.385Z,3.88
2018-03-08T05:16:06.904Z,3.96
2018-03-08T05:18:34.442Z,3.92
2018-03-08T05:21:01.956Z,3.91
2018-03-08T05:23:29.474Z,3.99
2018-03-08T05:25:56.998Z,3.99
2018-03-08T05:28:24.525Z,3.86
2018-03-08T05:30:52.082Z,3.98
2018-03-08T05:33:19.592Z,4.05
2018-03-08T05:35:47.114Z,4.03
2018-03-08T05:38:14.631Z,4.10
2018-03-08T05:40:42.157Z,4.14
2018-03-08T05:43:09.681Z,4.10
2018-03-08T05:45:37.201Z,4.11
2018-03-08T05:48:04.721Z,4.18
2018-03-08T05:50:32.238Z,4.16
2018-03-08T05:52:59.763Z,4.16
2018-03-08T05:55:27.283Z,4.20
2018-03-08T05:57:54.797Z,4.24
2018-03-08T06:00:22.313Z,4.23
2018-03-08T06:02:49.832Z,4.19
2018-03-08T06:05:17.349Z,4.16
2018-03-08T06:07:44.863Z,4.20
2018-03-08T06:10:12.383Z,4.30
2018-03-08T06:12:39.893Z,4.32
2018-03-08T06:15:07.411Z,4.42
2018-03-08T06:17:34.929Z,4.49
2018-03-08T06:20:02.440Z,4.41
2018-03-08T06:22:29.974Z,4.55
2018-03-08T06:24:57.489Z,4.62
2018-03-08T06:27:25.018Z,4.64
2018-03-08T06:29:52.537Z,4.60
2018-03-08T06:32:20.058Z,4.64
2018-03-08T06:34:47.572Z,4.68
2018-03-08T06:37:15.122Z,4.72
2018-03-08T06:39:42.643Z,4.70
2018-03-08T06:42:10.175Z,4.77
2018-03-08T06:44:38.669Z,4.72
2018-03-08T06:47:06.347Z,4.68
2018-03-08T06:49:33.892Z,4.73
2018-03-08T06:52:01.502Z,4.79
2018-03-08T06:54:28.957Z,4.80
2018-03-08T06:56:56.474Z,4.81
2018-03-08T06:59:24.093Z,4.77
2018-03-08T07:01:51.814Z,4.79
2018-03-08T07:04:19.362Z,4.94
2018-03-08T07:06:46.882Z,4.98
2018-03-08T07:09:14.393Z,5.02
2018-03-08T07:11:41.911Z,4.94
2018-03-08T07:14:09.429Z,5.05
2018-03-08T07:16:36.946Z,5.07
2018-03-08T07:19:04.719Z,5.17
2018-03-08T07:21:32.238Z,5.16
2018-03-08T07:23:59.750Z,5.13
2018-03-08T07:26:27.293Z,5.21
2018-03-08T07:28:54.839Z,5.27
2018-03-08T07:31:22.360Z,5.22
2018-03-08T07:33:49.901Z,5.16
2018-03-08T07:36:17.440Z,5.15
2018-03-08T07:38:44.966Z,5.27
2018-03-08T07:41:12.493Z,5.24
2018-03-08T07:43:40.014Z,5.28
2018-03-08T07:46:07.546Z,5.28
2018-03-08T07:48:35.122Z,5.26
2018-03-08T07:51:02.674Z,5.39
2018-03-08T07:53:30.189Z,5.53
2018-03-08T07:55:57.712Z,5.60
2018-03-08T07:58:25.241Z,5.50
2018-03-08T08:00:52.757Z,5.56
2018-03-08T08:03:20.273Z,5.44
2018-03-08T08:05:59.708Z,5.42
2018-03-08T08:11:31.455Z,5.68
2018-03-08T08:13:58.975Z,5.54
2018-03-08T08:16:26.495Z,5.63
2018-03-08T08:18:54.006Z,5.71
2018-03-08T08:21:21.616Z,5.77
2018-03-08T08:23:49.124Z,5.70
2018-03-08T08:26:16.650Z,5.72
2018-03-08T08:28:44.298Z,5.67
2018-03-08T08:31:11.871Z,5.65
2018-03-08T08:33:39.389Z,5.79
2018-03-08T08:36:06.926Z,5.71
2018-03-08T08:38:34.435Z,5.68
2018-03-08T08:41:01.963Z,5.80
2018-03-08T08:43:29.480Z,5.86
2018-03-08T08:45:57.003Z,5.76
2018-03-08T08:48:24.580Z,5.82
2018-03-08T08:50:52.101Z,5.86
2018-03-08T08:53:19.629Z,5.88
2018-03-08T08:55:47.154Z,5.92
2018-03-08T08:58:14.676Z,5.86
2018-03-08T09:00:42.194Z,5.70
2018-03-08T09:03:09.718Z,5.49
2018-03-08T09:05:37.251Z,5.58
2018-03-08T09:08:04.770Z,5.46
2018-03-08T09:10:32.291Z,5.75
2018-03-08T09:12:59.807Z,5.62
2018-03-08T09:15:27.325Z,5.67
2018-03-08T09:17:54.834Z,5.77
2018-03-08T09:20:22.354Z,5.74
2018-03-08T09:22:49.870Z,5.66
2018-03-08T09:25:17.387Z,5.72
2018-03-08T09:27:44.924Z,5.78
2018-03-08T09:30:12.457Z,5.47
2018-03-08T09:32:39.977Z,5.71
2018-03-08T09:35:07.494Z,5.60
2018-03-08T09:37:35.010Z,5.40
2018-03-08T09:40:02.531Z,5.22
2018-03-08T09:42:30.057Z,5.49
2018-03-08T09:44:57.573Z,5.61
2018-03-08T09:47:25.095Z,5.75
2018-03-08T09:49:52.604Z,5.42
2018-03-08T09:52:20.126Z,5.57
2018-03-08T09:54:47.638Z,5.61
2018-03-08T09:57:15.154Z,5.54
2018-03-08T09:59:42.672Z,5.57
2018-03-08T10:02:11.079Z,5.58
2018-03-08T10:04:38.594Z,5.44
2018-03-08T10:07:06.110Z,5.54
2018-03-08T10:09:33.626Z,5.21
2018-03-08T10:12:01.148Z,5.45
2018-03-08T10:14:28.675Z,5.59
2018-03-08T10:16:56.195Z,5.45
2018-03-08T10:19:23.723Z,5.69
2018-03-08T10:21:51.241Z,5.69
2018-03-08T10:24:18.762Z,5.78
2018-03-08T10:26:46.280Z,5.75
2018-03-08T10:29:13.793Z,5.72
2018-03-08T10:31:41.317Z,5.84
2018-03-08T10:34:08.848Z,5.56
2018-03-08T10:36:36.366Z,5.79
2018-03-08T10:39:03.894Z,5.60
2018-03-08T10:43:58.973Z,5.64
2018-03-08T10:46:26.481Z,5.57
2018-03-08T10:51:21.560Z,5.69
2018-03-08T10:53:49.079Z,5.80
2018-03-08T10:56:16.600Z,6.00
2018-03-08T10:58:44.213Z,5.96
2018-03-08T11:01:17.381Z,6.18
2018-03-08T11:03:48.774Z,6.27
2018-03-08T11:06:20.306Z,6.32
2018-03-08T11:08:47.833Z,6.61
2018-03-08T11:11:15.343Z,6.75
2018-03-08T11:13:42.862Z,6.97
2018-03-08T11:16:10.380Z,6.85
2018-03-08T11:18:37.899Z,6.68
2018-03-08T11:21:05.413Z,6.89
2018-03-08T11:23:32.934Z,6.91
2018-03-08T11:26:00.457Z,7.05
2018-03-08T11:28:27.975Z,7.10
2018-03-08T11:30:55.480Z,7.24
2018-03-08T11:33:22.999Z,7.77
2018-03-08T11:35:50.506Z,8.43
2018-03-08T11:38:18.034Z,8.42
2018-03-08T11:40:45.555Z,8.64
2018-03-08T11:43:13.074Z,8.33
2018-03-08T11:45:40.594Z,8.38
2018-03-08T11:48:08.138Z,8.61
2018-03-08T11:50:35.653Z,8.36
2018-03-08T11:53:03.175Z,8.40
2018-03-08T11:55:30.686Z,8.42
2018-03-08T11:57:58.212Z,8.11
2018-03-08T12:00:25.733Z,8.16
2018-03-08T12:02:53.245Z,8.30
2018-03-08T12:05:20.789Z,8.85
2018-03-08T12:07:48.422Z,9.57
2018-03-08T12:10:15.941Z,9.59
2018-03-08T12:12:43.461Z,9.38
2018-03-08T12:15:10.977Z,9.44
2018-03-08T12:17:38.491Z,9.64
2018-03-08T12:20:06.009Z,9.51
2018-03-08T12:22:33.528Z,9.45
2018-03-08T12:25:01.062Z,9.34
2018-03-08T12:27:28.580Z,9.29
2018-03-08T12:29:56.105Z,9.13
2018-03-08T12:32:23.634Z,9.13
2018-03-08T12:34:51.149Z,9.14
2018-03-08T12:37:18.657Z,9.24
2018-03-08T12:39:46.172Z,9.25
2018-03-08T12:42:13.737Z,9.37
2018-03-08T12:44:41.260Z,9.42
2018-03-08T12:47:08.789Z,9.30
2018-03-08T12:49:36.297Z,9.14
2018-03-08T12:52:03.806Z,9.20
2018-03-08T12:54:31.346Z,9.37
2018-03-08T12:56:58.874Z,9.28
2018-03-08T12:59:26.386Z,9.41
2018-03-08T13:01:53.907Z,9.60
2018-03-08T13:04:21.467Z,9.57
2018-03-08T13:06:48.994Z,9.84
2018-03-08T13:09:16.510Z,9.76
2018-03-08T13:11:44.038Z,9.61
2018-03-08T13:14:11.573Z,9.73
2018-03-08T13:16:39.105Z,9.61
2018-03-08T13:19:06.622Z,9.79
2018-03-08T13:21:34.143Z,9.59
2018-03-08T13:24:01.676Z,9.73
2018-03-08T13:26:29.194Z,9.84
2018-03-08T13:28:56.720Z,9.67
2018-03-08T13:31:24.246Z,9.75
2018-03-08T13:33:51.757Z,9.64
2018-03-08T13:36:19.281Z,9.64
2018-03-08T13:38:46.826Z,9.35
2018-03-08T13:41:14.336Z,9.49
2018-03-08T13:43:41.859Z,10.05
2018-03-08T13:46:09.381Z,10.16
2018-03-08T13:48:36.913Z,10.04
2018-03-08T13:51:04.458Z,10.20
2018-03-08T13:53:31.985Z,10.15
2018-03-08T13:55:59.509Z,10.07
2018-03-08T13:58:27.029Z,10.14
2018-03-08T14:00:54.558Z,10.04
2018-03-08T14:03:22.077Z,10.00
2018-03-08T14:05:49.595Z,10.04
2018-03-08T14:08:17.106Z,9.97
2018-03-08T14:10:44.624Z,9.93
2018-03-08T14:13:12.287Z,10.07
2018-03-08T14:15:39.814Z,9.97
2018-03-08T14:18:07.332Z,9.93
2018-03-08T14:20:34.866Z,10.09
2018-03-08T14:23:02.382Z,9.91
2018-03-08T14:25:29.904Z,9.95
2018-03-08T14:27:57.438Z,9.93
2018-03-08T14:30:24.956Z,10.04
2018-03-08T14:32:52.501Z,9.95
2018-03-08T14:35:20.016Z,10.01
2018-03-08T14:37:47.536Z,10.22
2018-03-08T14:40:15.058Z,9.97
2018-03-08T14:42:42.573Z,10.02
2018-03-08T14:45:10.082Z,10.01
2018-03-08T14:47:37.606Z,10.19
2018-03-08T14:50:05.130Z,10.23
2018-03-08T14:52:32.626Z,9.99
2018-03-08T14:55:00.146Z,9.91
2018-03-08T14:57:27.674Z,9.91
2018-03-08T14:59:55.193Z,9.85
2018-03-08T15:02:22.707Z,10.21
2018-03-08T15:04:50.209Z,9.93
2018-03-08T15:07:17.726Z,9.89
2018-03-08T15:09:45.325Z,9.71
2018-03-08T15:12:12.830Z,9.57
2018-03-08T15:14:40.489Z,9.56
2018-03-08T15:17:07.992Z,9.54
2018-03-08T15:19:35.512Z,9.51
2018-03-08T15:22:03.028Z,9.61
2018-03-08T15:24:30.542Z,9.68
2018-03-08T15:26:58.085Z,9.81
2018-03-08T15:29:25.606Z,9.72
2018-03-08T15:31:53.138Z,9.59
2018-03-08T15:34:20.645Z,9.58
2018-03-08T15:36:48.154Z,9.58
2018-03-08T15:39:15.649Z,9.58
2018-03-08T15:41:43.159Z,9.57
2018-03-08T15:44:10.671Z,9.56
2018-03-08T15:46:38.178Z,9.38
2018-03-08T15:49:05.747Z,9.42
2018-03-08T15:51:33.278Z,9.34
2018-03-08T15:54:00.790Z,9.31
2018-03-08T15:56:28.296Z,9.23
2018-03-08T15:58:55.798Z,9.12
2018-03-08T16:01:23.316Z,9.12
2018-03-08T16:03:50.822Z,9.07
2018-03-08T16:09:37.301Z,8.93
2018-03-08T16:12:04.821Z,8.86
2018-03-08T16:14:32.349Z,8.81
2018-03-08T16:17:00.083Z,8.73
2018-03-08T16:19:27.599Z,8.66
2018-03-08T16:21:55.098Z,8.68
2018-03-08T16:24:22.709Z,8.60
2018-03-08T16:26:50.249Z,8.52
2018-03-08T16:29:17.784Z,8.58
2018-03-08T16:31:45.303Z,8.49
2018-03-08T16:34:12.821Z,8.47
2018-03-08T16:36:40.325Z,8.45
2018-03-08T16:39:07.830Z,8.41
2018-03-08T16:41:35.331Z,8.49
2018-03-08T16:44:02.829Z,8.49
2018-03-08T16:46:30.329Z,8.41
2018-03-08T16:48:57.829Z,8.45
2018-03-08T16:51:25.345Z,8.46
2018-03-08T16:53:52.852Z,8.41
2018-03-08T16:56:20.356Z,8.36
2018-03-08T16:58:47.856Z,8.37
2018-03-08T17:01:15.363Z,8.40
2018-03-08T17:03:42.887Z,8.37
2018-03-08T17:06:10.401Z,8.29
2018-03-08T17:08:37.901Z,8.28
2018-03-08T17:11:05.413Z,8.32
2018-03-08T17:13:32.924Z,8.28
2018-03-08T17:16:00.483Z,8.27
2018-03-08T17:18:28.237Z,8.28
2018-03-08T17:20:55.755Z,8.26
2018-03-08T17:23:23.261Z,8.25
2018-03-08T17:25:50.773Z,8.27
2018-03-08T17:28:18.313Z,8.27
2018-03-08T17:30:45.855Z,8.19
2018-03-08T17:33:13.372Z,8.25
2018-03-08T17:35:40.882Z,8.27
2018-03-08T17:38:08.395Z,8.27
2018-03-08T17:40:35.906Z,8.23
2018-03-08T17:43:03.414Z,8.21
2018-03-08T17:45:30.928Z,8.10
2018-03-08T17:47:58.438Z,7.98
2018-03-08T17:50:25.953Z,8.00
2018-03-08T17:52:53.472Z,7.92
2018-03-08T17:55:20.984Z,7.93
2018-03-08T17:57:48.517Z,7.81
2018-03-08T18:00:16.028Z,7.84
2018-03-08T18:02:43.536Z,7.72
2018-03-08T18:05:11.055Z,7.62
2018-03-08T18:07:38.567Z,7.57
2018-03-08T18:10:06.116Z,7.63
2018-03-08T18:12:33.628Z,7.54
2018-03-08T18:15:01.143Z,7.49
2018-03-08T18:17:28.659Z,7.52
2018-03-08T18:19:56.179Z,7.40
2018-03-08T18:22:23.680Z,7.45
2018-03-08T18:24:51.208Z,7.43
2018-03-08T18:27:18.729Z,7.34
2018-03-08T18:29:46.243Z,7.45
2018-03-08T18:32:13.758Z,7.37
2018-03-08T18:34:41.253Z,7.37
2018-03-08T18:37:08.761Z,7.28
2018-03-08T18:39:36.279Z,7.29
2018-03-08T18:42:03.779Z,7.23
2018-03-08T18:44:31.285Z,7.20
2018-03-08T18:46:58.780Z,7.18
2018-03-08T18:49:26.296Z,7.13
2018-03-08T18:51:53.796Z,7.11
2018-03-08T18:54:21.313Z,7.11
2018-03-08T18:56:48.838Z,7.02
2018-03-08T18:59:16.354Z,6.97
2018-03-08T19:01:43.893Z,6.96
2018-03-08T19:04:11.396Z,6.93
2018-03-08T19:06:38.912Z,6.95
2018-03-08T19:09:06.417Z,6.97
2018-03-08T19:11:33.935Z,7.04
2018-03-08T19:14:01.450Z,6.95
2018-03-08T19:16:28.959Z,7.00
2018-03-08T19:18:56.469Z,6.99
2018-03-08T19:21:23.972Z,7.07
2018-03-08T19:23:51.486Z,7.08
2018-03-08T19:26:18.992Z,7.01
2018-03-08T19:28:46.556Z,7.04
2018-03-08T19:31:14.065Z,7.10
2018-03-08T19:33:41.576Z,7.09
2018-03-08T19:36:09.076Z,7.07
2018-03-08T19:38:36.648Z,7.02
2018-03-08T19:41:04.159Z,6.98
2018-03-08T19:43:31.652Z,7.03
2018-03-08T19:45:59.186Z,6.98
2018-03-08T19:48:26.734Z,6.95
2018-03-08T19:50:54.250Z,6.97
2018-03-08T19:53:21.754Z,6.95
2018-03-08T19:55:49.283Z,6.91
2018-03-08T19:58:16.907Z,6.91
2018-03-08T20:00:44.420Z,6.90
2018-03-08T20:03:12.044Z,6.94
2018-03-08T20:05:39.579Z,7.00
2018-03-08T20:08:07.101Z,6.92
2018-03-08T20:10:34.615Z,6.86
2018-03-08T20:13:02.849Z,6.90
2018-03-08T20:15:30.364Z,6.82
2018-03-08T20:17:57.877Z,6.95
2018-03-08T20:20:25.385Z,6.84
2018-03-08T20:22:52.888Z,6.87
2018-03-08T20:25:20.416Z,6.83
2018-03-08T20:27:47.933Z,6.76
2018-03-08T20:30:16.069Z,6.84
2018-03-08T20:32:44.064Z,6.77
2018-03-08T20:35:11.707Z,6.72
2018-03-08T20:37:39.315Z,6.74
2018-03-08T20:40:06.852Z,6.82
2018-03-08T20:42:34.408Z,6.78
2018-03-08T20:45:01.958Z,6.75
2018-03-08T20:47:29.500Z,6.87
2018-03-08T20:49:57.036Z,6.84
2018-03-08T20:52:24.605Z,6.83
2018-03-08T20:54:52.158Z,6.95
2018-03-08T20:57:19.682Z,6.95
2018-03-08T20:59:47.224Z,6.99
2018-03-08T21:02:14.790Z,6.93
2018-03-08T21:04:42.344Z,7.02
2018-03-08T21:07:09.877Z,6.99
2018-03-08T21:09:37.416Z,7.04
2018-03-08T21:12:04.950Z,7.07
2018-03-08T21:14:32.496Z,6.98
2018-03-08T21:17:00.038Z,7.04
2018-03-08T21:19:27.582Z,7.06
2018-03-08T21:21:55.146Z,6.98
2018-03-08T21:24:22.694Z,7.02
2018-03-08T21:26:50.851Z,7.04
2018-03-08T21:29:20.155Z,7.10
2018-03-08T21:31:47.692Z,7.05
2018-03-08T21:34:15.230Z,7.04
2018-03-08T21:36:42.908Z,6.99
2018-03-08T21:39:11.323Z,6.95
2018-03-08T21:41:38.873Z,6.98
2018-03-08T21:44:06.431Z,6.87
2018-03-08T21:46:33.966Z,6.95
2018-03-08T21:49:01.514Z,6.94
2018-03-08T21:51:29.065Z,6.82
2018-03-08T21:53:56.611Z,6.76
2018-03-08T21:56:24.146Z,6.75
2018-03-08T21:58:51.695Z,6.72
2018-03-08T22:01:19.237Z,6.64
2018-03-08T22:03:46.782Z,6.70
2018-03-08T22:06:14.326Z,6.75
2018-03-08T22:08:41.864Z,6.73
2018-03-08T22:11:10.228Z,6.59
2018-03-08T22:13:37.767Z,6.48
2018-03-08T22:16:05.308Z,6.59
2018-03-08T22:18:33.638Z,6.33
2018-03-08T22:21:02.359Z,6.42
2018-03-08T22:23:29.920Z,6.64
2018-03-08T22:25:58.522Z,6.67
2018-03-08T22:28:26.062Z,6.53
2018-03-08T22:30:54.394Z,6.49
2018-03-08T22:33:21.940Z,6.53
2018-03-08T22:35:49.474Z,6.57
2018-03-08T22:38:17.031Z,6.67
2018-03-08T22:40:44.575Z,6.51
2018-03-08T22:43:13.030Z,6.28
2018-03-08T22:45:40.584Z,6.52
2018-03-08T22:48:08.123Z,6.43
2018-03-08T22:50:35.688Z,6.31
2018-03-08T22:53:03.976Z,5.54
2018-03-08T22:55:31.516Z,5.33
2018-03-08T22:58:03.335Z,5.41
2018-03-08T23:00:30.886Z,5.55
2018-03-08T23:03:04.114Z,5.39
2018-03-08T23:05:31.675Z,5.30
2018-03-08T23:07:59.246Z,5.39
2018-03-08T23:10:26.794Z,5.37
2018-03-08T23:12:55.286Z,5.62
2018-03-08T23:15:22.833Z,5.64
2018-03-08T23:17:50.599Z,5.55
2018-03-08T23:20:18.135Z,5.38
2018-03-08T23:22:45.687Z,5.46
2018-03-08T23:25:13.235Z,5.29
2018-03-08T23:27:40.790Z,5.32
2018-03-08T23:30:08.318Z,5.36
2018-03-08T23:32:36.045Z,5.18
2018-03-08T23:35:03.701Z,5.32
2018-03-08T23:37:32.078Z,5.48
2018-03-08T23:39:59.614Z,5.36
2018-03-08T23:42:27.729Z,5.16
2018-03-08T23:44:55.265Z,5.12
2018-03-08T23:47:22.835Z,5.43
2018-03-08T23:49:50.379Z,5.30
2018-03-08T23:52:18.648Z,5.32
2018-03-08T23:54:46.184Z,5.08
2018-03-08T23:57:13.735Z,4.94
2018-03-08T23:59:41.514Z,4.76
